createdAt,value
2023-04-13T00:00:53.132Z,4.10
2023-04-13T00:03:21.057Z,3.13
2023-04-13T00:05:49.089Z,3.08
2023-04-13T00:08:17.436Z,2.90
2023-04-13T00:10:46.336Z,2.90
2023-04-13T00:13:15.206Z,2.80
2023-04-13T00:15:44.003Z,2.72
2023-04-13T00:18:12.391Z,2.40
2023-04-13T00:20:42.125Z,2.30
2023-04-13T00:23:10.263Z,2.10
2023-04-13T00:25:37.885Z,2.75
2023-04-13T00:28:06.793Z,2.03
2023-04-13T00:30:34.571Z,2.00
2023-04-13T00:33:05.163Z,2.03
2023-04-13T00:35:32.899Z,2.15
2023-04-13T00:38:03.313Z,1.83
2023-04-13T00:40:30.918Z,1.80
2023-04-13T00:42:58.615Z,1.75
2023-04-13T00:45:26.596Z,1.75
2023-04-13T00:47:54.425Z,1.80
2023-04-13T00:50:22.109Z,1.80
2023-04-13T00:52:50.082Z,1.88
2023-04-13T00:55:21.675Z,1.52
2023-04-13T00:57:53.580Z,1.90
2023-04-13T01:00:22.488Z,1.73
2023-04-13T01:02:51.553Z,1.88
2023-04-13T01:05:19.978Z,1.80
2023-04-13T01:07:53.917Z,1.70
2023-04-13T01:10:27.965Z,1.60
2023-04-13T01:13:04.663Z,1.98
2023-04-13T01:15:40.357Z,1.63
2023-04-13T01:18:10.290Z,1.65
2023-04-13T01:20:41.752Z,1.90
2023-04-13T01:23:31.560Z,1.98
2023-04-13T01:26:02.580Z,1.80
2023-04-13T01:28:31.495Z,1.55
2023-04-13T01:31:01.729Z,1.90
2023-04-13T01:33:30.982Z,1.83
2023-04-13T01:36:02.422Z,1.70
2023-04-13T01:38:31.612Z,1.85
2023-04-13T01:41:01.469Z,2.40
2023-04-13T01:43:31.813Z,2.20
2023-04-13T01:46:16.259Z,2.10
2023-04-13T01:48:56.880Z,2.00
2023-04-13T01:51:48.604Z,2.45
2023-04-13T01:54:26.026Z,2.58
2023-04-13T01:56:57.410Z,2.30
2023-04-13T01:59:25.319Z,2.42
2023-04-13T02:01:53.008Z,2.30
2023-04-13T02:04:21.429Z,2.40
2023-04-13T02:06:51.800Z,2.50
2023-04-13T02:09:28.458Z,2.35
2023-04-13T02:11:56.423Z,2.45
2023-04-13T02:14:23.876Z,2.22
2023-04-13T02:16:54.020Z,2.70
2023-04-13T02:19:22.124Z,2.80
2023-04-13T02:21:49.520Z,2.78
2023-04-13T02:24:18.770Z,3.17
2023-04-13T02:26:46.365Z,2.72
2023-04-13T02:29:13.929Z,2.65
2023-04-13T02:31:44.574Z,2.42
2023-04-13T02:34:12.016Z,2.45
2023-04-13T02:36:40.862Z,2.55
2023-04-13T02:39:09.972Z,2.40
2023-04-13T02:44:38.966Z,2.50
2023-04-13T02:47:11.219Z,2.40
2023-04-13T02:49:57.462Z,2.17
2023-04-13T02:52:45.415Z,2.58
2023-04-13T02:55:13.426Z,2.80
2023-04-13T02:57:50.324Z,3.13
2023-04-13T03:00:18.834Z,2.60
2023-04-13T03:02:53.472Z,2.63
2023-04-13T03:05:22.916Z,2.75
2023-04-13T03:07:50.331Z,2.75
2023-04-13T03:10:19.287Z,2.90
2023-04-13T03:12:48.209Z,2.75
2023-04-13T03:15:18.469Z,2.92
2023-04-13T03:17:46.196Z,2.60
2023-04-13T03:20:23.860Z,2.50
2023-04-13T03:22:57.428Z,2.90
2023-04-13T03:25:26.356Z,2.78
2023-04-13T03:27:53.902Z,2.70
2023-04-13T03:30:23.679Z,3.00
2023-04-13T03:33:01.196Z,3.53
2023-04-13T03:35:32.558Z,3.25
2023-04-13T03:38:02.635Z,3.30
2023-04-13T03:40:39.016Z,2.90
2023-04-13T03:43:06.894Z,2.67
2023-04-13T03:45:38.292Z,3.00
2023-04-13T03:48:11.232Z,3.13
2023-04-13T03:50:38.799Z,2.60
2023-04-13T03:53:08.266Z,2.42
2023-04-13T03:55:37.978Z,2.67
2023-04-13T03:58:07.987Z,2.55
2023-04-13T04:00:36.063Z,2.75
2023-04-13T04:03:11.973Z,2.90
2023-04-13T04:05:52.072Z,2.58
2023-04-13T04:08:19.675Z,2.55
2023-04-13T04:10:48.648Z,2.65
2023-04-13T04:13:17.710Z,2.17
2023-04-13T04:15:50.265Z,2.05
2023-04-13T04:18:18.157Z,2.03
2023-04-13T04:20:45.754Z,1.73
2023-04-13T04:23:14.295Z,2.00
2023-04-13T04:25:52.232Z,2.00
2023-04-13T04:28:20.317Z,1.65
2023-04-13T04:30:54.617Z,1.60
2023-04-13T04:33:25.918Z,1.80
2023-04-13T04:35:54.579Z,2.10
2023-04-13T04:40:58.002Z,1.73
2023-04-13T04:43:27.486Z,1.50
2023-04-13T04:45:58.025Z,1.48
2023-04-13T04:48:27.266Z,1.75
2023-04-13T04:50:58.590Z,2.03
2023-04-13T04:53:31.309Z,1.83
2023-04-13T04:55:58.918Z,2.00
2023-04-13T04:58:43.601Z,2.13
2023-04-13T05:01:11.248Z,2.03
2023-04-13T05:03:39.769Z,1.85
2023-04-13T05:06:33.097Z,1.85
2023-04-13T05:09:02.776Z,1.65
2023-04-13T05:11:32.549Z,1.80
2023-04-13T05:14:02.559Z,1.80
2023-04-13T05:16:31.070Z,1.90
2023-04-13T05:19:08.210Z,1.90
2023-04-13T05:21:53.422Z,1.98
2023-04-13T05:24:22.488Z,1.73
2023-04-13T05:26:51.966Z,1.77
2023-04-13T05:29:22.962Z,1.80
2023-04-13T05:31:51.413Z,1.92
2023-04-13T05:34:20.208Z,2.00
2023-04-13T05:37:06.408Z,1.60
2023-04-13T05:39:34.179Z,1.30
2023-04-13T05:42:02.227Z,1.45
2023-04-13T05:44:33.089Z,1.52
2023-04-13T05:47:02.509Z,1.38
2023-04-13T05:49:33.353Z,1.60
2023-04-13T05:52:01.277Z,1.40
2023-04-13T05:54:40.142Z,1.73
2023-04-13T05:57:08.001Z,1.50
2023-04-13T05:59:38.703Z,1.80
2023-04-13T06:02:07.205Z,1.50
2023-04-13T06:04:36.806Z,1.45
2023-04-13T06:07:07.449Z,1.40
2023-04-13T06:09:35.062Z,1.50
2023-04-13T06:12:03.079Z,1.40
2023-04-13T06:14:30.651Z,1.20
2023-04-13T06:16:58.332Z,2.30
2023-04-13T06:19:29.166Z,1.75
2023-04-13T06:21:57.404Z,1.90
2023-04-13T06:24:24.828Z,2.00
2023-04-13T06:26:52.588Z,1.70
2023-04-13T06:29:20.855Z,1.98
2023-04-13T06:32:01.615Z,1.85
2023-04-13T06:34:29.209Z,2.30
2023-04-13T06:36:57.819Z,1.75
2023-04-13T06:39:28.799Z,1.60
2023-04-13T06:42:01.373Z,2.15
2023-04-13T06:47:36.363Z,1.75
2023-04-13T06:50:07.005Z,1.80
2023-04-13T06:52:40.685Z,2.00
2023-04-13T06:55:08.654Z,2.28
2023-04-13T06:57:40.869Z,1.80
2023-04-13T07:00:25.984Z,1.67
2023-04-13T07:02:58.920Z,1.70
2023-04-13T07:05:26.836Z,2.10
2023-04-13T07:07:58.788Z,1.75
2023-04-13T07:10:26.957Z,1.70
2023-04-13T07:12:56.892Z,1.80
2023-04-13T07:15:27.752Z,1.60
2023-04-13T07:17:56.262Z,1.67
2023-04-13T07:20:23.870Z,1.58
2023-04-13T07:22:51.620Z,1.25
2023-04-13T07:25:19.340Z,1.42
2023-04-13T07:27:47.418Z,1.50
2023-04-13T07:30:16.737Z,1.42
2023-04-13T07:32:47.093Z,1.38
2023-04-13T07:35:14.800Z,1.67
2023-04-13T07:37:44.833Z,1.50
2023-04-13T07:40:15.356Z,1.95
2023-04-13T07:42:50.303Z,1.95
2023-04-13T07:45:20.290Z,1.50
2023-04-13T07:47:48.833Z,1.40
2023-04-13T07:50:18.252Z,1.70
2023-04-13T07:52:47.528Z,1.58
2023-04-13T07:55:20.061Z,1.70
2023-04-13T07:57:49.462Z,1.60
2023-04-13T08:00:20.720Z,1.63
2023-04-13T08:02:54.681Z,1.50
2023-04-13T08:05:26.400Z,1.60
2023-04-13T08:07:54.118Z,1.75
2023-04-13T08:10:22.006Z,1.52
2023-04-13T08:12:49.564Z,1.55
2023-04-13T08:15:19.637Z,1.80
2023-04-13T08:17:47.633Z,1.80
2023-04-13T08:20:16.325Z,1.50
2023-04-13T08:22:46.622Z,1.23
2023-04-13T08:25:14.126Z,1.30
2023-04-13T08:27:41.914Z,1.48
2023-04-13T08:30:14.764Z,1.30
2023-04-13T08:32:54.177Z,1.48
2023-04-13T08:35:23.724Z,1.38
2023-04-13T08:37:54.155Z,1.63
2023-04-13T08:40:22.948Z,1.75
2023-04-13T08:42:56.265Z,1.92
2023-04-13T08:45:24.198Z,2.10
2023-04-13T08:47:51.852Z,1.63
2023-04-13T08:50:23.247Z,1.50
2023-04-13T08:52:54.549Z,1.50
2023-04-13T08:55:24.245Z,1.60
2023-04-13T08:57:57.270Z,1.40
2023-04-13T09:00:25.644Z,1.30
2023-04-13T09:03:05.712Z,1.30
2023-04-13T09:05:41.590Z,1.50
2023-04-13T09:08:16.261Z,1.70
2023-04-13T09:11:00.706Z,1.40
2023-04-13T09:13:28.308Z,1.30
2023-04-13T09:15:57.107Z,1.63
2023-04-13T09:18:52.624Z,1.50
2023-04-13T09:21:20.449Z,1.33
2023-04-13T09:23:58.970Z,1.30
2023-04-13T09:26:27.365Z,1.33
2023-04-13T09:28:58.470Z,1.38
2023-04-13T09:31:26.332Z,1.45
2023-04-13T09:33:53.876Z,1.27
2023-04-13T09:36:22.962Z,1.60
2023-04-13T09:38:56.356Z,1.40
2023-04-13T09:41:38.856Z,1.40
2023-04-13T09:44:21.466Z,1.92
2023-04-13T09:47:02.397Z,1.80
2023-04-13T09:49:57.715Z,2.30
2023-04-13T09:52:27.093Z,1.77
2023-04-13T09:54:57.539Z,1.60
2023-04-13T09:57:29.555Z,1.98
2023-04-13T10:00:01.370Z,1.83
2023-04-13T10:02:39.993Z,2.08
2023-04-13T10:05:10.523Z,2.00
2023-04-13T10:07:38.494Z,1.70
2023-04-13T10:10:09.333Z,1.80
2023-04-13T10:12:48.008Z,1.83
2023-04-13T10:18:37.104Z,1.88
2023-04-13T10:21:07.458Z,2.00
2023-04-13T10:23:35.676Z,2.20
2023-04-13T10:26:04.395Z,1.80
2023-04-13T10:28:43.535Z,1.90
2023-04-13T10:31:11.151Z,1.80
2023-04-13T10:33:57.582Z,2.15
2023-04-13T10:36:38.687Z,2.00
2023-04-13T10:39:06.563Z,2.00
2023-04-13T10:41:34.543Z,1.90
2023-04-13T10:44:09.246Z,2.08
2023-04-13T10:46:37.007Z,2.60
2023-04-13T10:49:05.425Z,2.40
2023-04-13T10:51:59.394Z,2.13
2023-04-13T10:54:30.123Z,2.40
2023-04-13T10:57:03.998Z,2.40
2023-04-13T10:59:56.179Z,2.45
2023-04-13T11:02:27.010Z,3.20
2023-04-13T11:04:55.225Z,3.17
2023-04-13T11:07:26.336Z,3.17
2023-04-13T11:12:30.730Z,4.60
2023-04-13T11:14:58.296Z,2.88
2023-04-13T11:17:25.864Z,3.35
2023-04-13T11:19:55.102Z,2.40
2023-04-13T11:22:28.140Z,2.30
2023-04-13T11:25:09.313Z,2.33
2023-04-13T11:27:38.279Z,2.00
2023-04-13T11:30:09.952Z,2.03
2023-04-13T11:32:41.878Z,1.88
2023-04-13T11:35:16.894Z,2.00
2023-04-13T11:37:49.119Z,1.85
2023-04-13T11:40:21.650Z,1.52
2023-04-13T11:43:00.398Z,1.77
2023-04-13T11:45:29.700Z,1.85
2023-04-13T11:47:58.301Z,1.73
2023-04-13T11:50:26.423Z,2.17
2023-04-13T11:52:57.414Z,1.88
2023-04-13T11:55:25.912Z,1.88
2023-04-13T11:57:54.679Z,2.03
2023-04-13T12:00:24.805Z,2.28
2023-04-13T12:05:33.607Z,4.55
2023-04-13T12:08:04.619Z,2.85
2023-04-13T12:10:46.708Z,2.10
2023-04-13T12:13:35.987Z,4.07
2023-04-13T12:16:11.210Z,1.83
2023-04-13T12:18:49.596Z,1.45
2023-04-13T12:21:20.305Z,1.50
2023-04-13T12:23:58.557Z,1.40
2023-04-13T12:29:09.461Z,1.50
2023-04-13T12:31:39.501Z,2.58
2023-04-13T12:34:11.116Z,1.73
2023-04-13T12:36:38.603Z,1.83
2023-04-13T12:39:07.103Z,1.10
2023-04-13T12:41:34.635Z,1.42
2023-04-13T12:44:02.116Z,1.00
2023-04-13T12:46:29.962Z,1.40
2023-04-13T12:48:57.613Z,1.27
2023-04-13T12:51:26.529Z,1.20
2023-04-13T12:53:53.910Z,1.42
2023-04-13T12:56:21.391Z,1.30
2023-04-13T12:58:49.003Z,1.30
2023-04-13T13:01:16.524Z,1.40
2023-04-13T13:03:45.612Z,1.45
2023-04-13T13:06:13.112Z,1.77
2023-04-13T13:08:40.666Z,1.55
2023-04-13T13:11:11.519Z,2.03
2023-04-13T13:13:39.020Z,1.55
2023-04-13T13:16:06.939Z,1.40
2023-04-13T13:18:47.043Z,1.40
2023-04-13T13:21:17.621Z,1.05
2023-04-13T13:23:45.996Z,1.35
2023-04-13T13:26:23.765Z,1.88
2023-04-13T13:28:52.762Z,1.70
2023-04-13T13:31:20.425Z,1.95
2023-04-13T13:33:48.038Z,1.63
2023-04-13T13:36:15.681Z,1.73
2023-04-13T13:38:43.683Z,2.10
2023-04-13T13:41:12.202Z,1.40
2023-04-13T13:43:40.317Z,1.55
2023-04-13T13:46:08.009Z,1.88
2023-04-13T13:48:38.125Z,1.40
2023-04-13T13:51:36.078Z,1.90
2023-04-13T13:56:33.813Z,1.40
2023-04-13T13:59:01.747Z,1.60
2023-04-13T14:01:32.534Z,1.60
2023-04-13T14:04:02.454Z,1.85
2023-04-13T14:06:32.748Z,1.70
2023-04-13T14:09:00.767Z,1.73
2023-04-13T14:11:28.818Z,2.08
2023-04-13T14:13:56.570Z,2.10
2023-04-13T14:16:26.226Z,2.13
2023-04-13T14:18:56.094Z,2.80
2023-04-13T14:21:23.801Z,2.92
2023-04-13T14:23:54.474Z,2.10
2023-04-13T14:26:24.224Z,2.53
2023-04-13T14:28:52.160Z,1.80
2023-04-13T14:31:19.843Z,2.00
2023-04-13T14:33:47.539Z,2.17
2023-04-13T14:36:17.221Z,1.83
2023-04-13T14:38:44.927Z,2.10
2023-04-13T14:41:12.544Z,2.08
2023-04-13T14:43:40.286Z,2.10
2023-04-13T14:46:09.230Z,1.90
2023-04-13T14:48:37.045Z,1.63
2023-04-13T14:51:04.778Z,2.20
2023-04-13T14:53:32.488Z,2.28
2023-04-13T14:56:00.222Z,2.30
2023-04-13T14:58:29.313Z,1.92
2023-04-13T15:00:57.048Z,2.20
2023-04-13T15:03:24.734Z,2.10
2023-04-13T15:06:29.222Z,2.30
2023-04-13T15:08:56.804Z,2.20
2023-04-13T15:11:27.604Z,2.00
2023-04-13T15:13:55.270Z,2.45
2023-04-13T15:16:24.605Z,1.75
2023-04-13T15:18:52.242Z,2.28
2023-04-13T15:21:19.904Z,2.65
2023-04-13T15:23:47.622Z,2.50
2023-04-13T15:26:19.048Z,2.38
2023-04-13T15:28:47.993Z,2.33
2023-04-13T15:31:15.856Z,2.00
2023-04-13T15:33:43.564Z,2.78
2023-04-13T15:36:16.234Z,2.25
2023-04-13T15:39:03.967Z,4.20
2023-04-13T15:41:35.013Z,2.40
2023-04-13T15:44:03.840Z,2.10
2023-04-13T15:46:37.540Z,1.90
2023-04-13T15:49:05.238Z,1.83
2023-04-13T15:51:33.223Z,1.70
2023-04-13T15:54:03.835Z,1.88
2023-04-13T15:56:31.747Z,1.98
2023-04-13T15:58:59.660Z,1.80
2023-04-13T16:01:27.974Z,1.65
2023-04-13T16:03:56.098Z,1.92
2023-04-13T16:06:24.093Z,2.78
2023-04-13T16:08:51.615Z,2.72
2023-04-13T16:11:21.158Z,2.30
2023-04-13T16:13:50.052Z,1.58
2023-04-13T16:16:21.334Z,1.90
2023-04-13T16:18:49.612Z,2.25
2023-04-13T16:21:19.802Z,1.92
2023-04-13T16:23:47.601Z,1.88
2023-04-13T16:26:15.144Z,1.45
2023-04-13T16:28:42.913Z,1.70
2023-04-13T16:31:11.502Z,1.45
2023-04-13T16:33:56.094Z,1.70
2023-04-13T16:36:27.670Z,2.08
2023-04-13T16:38:55.326Z,1.73
2023-04-13T16:41:23.835Z,1.88
2023-04-13T16:43:51.610Z,2.05
2023-04-13T16:46:19.280Z,1.80
2023-04-13T16:48:46.966Z,1.90
2023-04-13T16:51:14.589Z,2.22
2023-04-13T16:53:44.438Z,2.20
2023-04-13T16:56:13.850Z,2.30
2023-04-13T16:58:43.398Z,2.05
2023-04-13T17:01:11.168Z,2.05
2023-04-13T17:03:39.018Z,1.73
2023-04-13T17:06:07.472Z,1.98
2023-04-13T17:08:35.024Z,1.58
2023-04-13T17:11:02.944Z,2.10
2023-04-13T17:13:30.525Z,1.85
2023-04-13T17:15:58.167Z,1.80
2023-04-13T17:18:26.236Z,2.13
2023-04-13T17:20:55.282Z,1.90
2023-04-13T17:23:23.773Z,1.60
2023-04-13T17:25:54.653Z,2.10
2023-04-13T17:28:23.728Z,2.08
2023-04-13T17:30:51.678Z,2.00
2023-04-13T17:33:19.420Z,1.98
2023-04-13T17:35:47.822Z,2.05
2023-04-13T17:38:15.619Z,2.28
2023-04-13T17:40:43.326Z,1.98
2023-04-13T17:43:11.267Z,1.80
2023-04-13T17:45:40.454Z,2.22
2023-04-13T17:48:08.777Z,1.60
2023-04-13T17:50:36.492Z,1.92
2023-04-13T17:53:04.792Z,1.77
2023-04-13T17:55:33.750Z,1.60
2023-04-13T17:58:01.453Z,1.15
2023-04-13T18:00:29.464Z,1.75
2023-04-13T18:02:58.381Z,1.50
2023-04-13T18:05:27.077Z,1.80
2023-04-13T18:07:54.830Z,1.55
2023-04-13T18:10:22.434Z,1.40
2023-04-13T18:12:50.179Z,2.15
2023-04-13T18:15:21.165Z,1.60
2023-04-13T18:17:48.894Z,1.40
2023-04-13T18:20:16.494Z,1.40
2023-04-13T18:22:44.425Z,1.40
2023-04-13T18:25:15.183Z,1.67
2023-04-13T18:27:44.094Z,1.05
2023-04-13T18:30:12.497Z,1.52
2023-04-13T18:32:40.248Z,1.40
2023-04-13T18:35:08.262Z,1.10
2023-04-13T18:37:35.903Z,1.50
2023-04-13T18:40:05.664Z,1.23
2023-04-13T18:42:33.842Z,1.10
2023-04-13T18:45:01.425Z,1.00
2023-04-13T18:47:30.697Z,1.10
2023-04-13T18:49:58.615Z,2.00
2023-04-13T18:52:26.674Z,1.23
2023-04-13T18:54:54.726Z,1.20
2023-04-13T18:57:28.962Z,1.00
2023-04-13T19:00:11.822Z,1.23
2023-04-13T19:02:42.615Z,1.20
2023-04-13T19:05:12.824Z,1.55
2023-04-13T19:07:47.521Z,1.48
2023-04-13T19:10:15.098Z,1.05
2023-04-13T19:12:43.037Z,1.23
2023-04-13T19:15:11.278Z,1.10
2023-04-13T19:17:39.006Z,1.20
2023-04-13T19:20:10.365Z,1.10
2023-04-13T19:22:38.789Z,1.10
2023-04-13T19:25:14.284Z,1.30
2023-04-13T19:27:44.910Z,1.10
2023-04-13T19:30:14.008Z,1.02
2023-04-13T19:32:44.878Z,0.85
2023-04-13T19:35:13.164Z,1.20
2023-04-13T19:37:42.108Z,1.13
2023-04-13T19:40:10.653Z,1.10
2023-04-13T19:42:38.340Z,1.33
2023-04-13T19:45:06.431Z,1.27
2023-04-13T19:47:33.838Z,1.00
2023-04-13T19:50:01.485Z,1.20
2023-04-13T19:52:30.025Z,1.00
2023-04-13T19:54:57.694Z,1.10
2023-04-13T19:57:25.346Z,1.02
2023-04-13T19:59:53.004Z,1.00
2023-04-13T20:02:20.774Z,1.08
2023-04-13T20:04:50.553Z,1.35
2023-04-13T20:07:18.567Z,1.10
2023-04-13T20:09:46.684Z,1.20
2023-04-13T20:12:14.487Z,1.10
2023-04-13T20:14:42.906Z,1.27
2023-04-13T20:17:11.471Z,1.25
2023-04-13T20:19:39.151Z,1.00
2023-04-13T20:22:07.347Z,1.10
2023-04-13T20:24:34.927Z,1.08
2023-04-13T20:27:02.364Z,1.00
2023-04-13T20:29:30.069Z,1.38
2023-04-13T20:31:57.965Z,1.20
2023-04-13T20:34:27.767Z,1.15
2023-04-13T20:36:56.755Z,1.10
2023-04-13T20:39:30.150Z,0.90
2023-04-13T20:41:57.914Z,1.30
2023-04-13T20:44:26.117Z,1.10
2023-04-13T20:46:57.313Z,1.30
2023-04-13T20:49:24.938Z,1.10
2023-04-13T20:51:57.587Z,1.20
2023-04-13T20:54:25.087Z,1.30
2023-04-13T20:56:52.504Z,0.98
2023-04-13T20:59:20.033Z,0.90
2023-04-13T21:01:49.108Z,1.25
2023-04-13T21:04:17.097Z,1.33
2023-04-13T21:06:45.248Z,1.30
2023-04-13T21:09:14.247Z,1.35
2023-04-13T21:11:44.933Z,1.25
2023-04-13T21:14:12.397Z,0.90
2023-04-13T21:16:39.869Z,1.20
2023-04-13T21:19:07.499Z,1.00
2023-04-13T21:21:36.263Z,1.10
2023-04-13T21:24:03.727Z,1.08
2023-04-13T21:26:31.278Z,1.05
2023-04-13T21:28:58.711Z,1.20
2023-04-13T21:31:26.206Z,1.00
2023-04-13T21:33:55.003Z,1.23
2023-04-13T21:38:53.239Z,1.20
2023-04-13T21:41:21.882Z,1.20
2023-04-13T21:43:49.414Z,1.10
2023-04-13T21:46:17.342Z,0.85
2023-04-13T21:48:44.809Z,1.08
2023-04-13T21:51:12.363Z,1.42
2023-04-13T21:53:39.828Z,1.00
2023-04-13T21:56:07.753Z,0.90
2023-04-13T21:58:40.476Z,1.40
2023-04-13T22:01:08.654Z,1.20
2023-04-13T22:03:41.504Z,0.98
2023-04-13T22:06:11.419Z,1.30
2023-04-13T22:08:39.421Z,1.15
2023-04-13T22:11:07.581Z,0.90
2023-04-13T22:13:35.109Z,1.10
2023-04-13T22:16:02.819Z,0.93
2023-04-13T22:18:30.392Z,0.90
2023-04-13T22:21:00.152Z,0.88
2023-04-13T22:23:27.818Z,1.17
2023-04-13T22:26:01.891Z,1.35
2023-04-13T22:28:31.311Z,1.10
2023-04-13T22:31:05.632Z,1.20
2023-04-13T22:33:36.321Z,0.88
2023-04-13T22:36:04.742Z,1.20
2023-04-13T22:38:32.719Z,1.15
2023-04-13T22:41:06.676Z,1.13
2023-04-13T22:46:01.666Z,1.20
2023-04-13T22:48:30.012Z,1.17
2023-04-13T22:51:01.688Z,1.20
2023-04-13T22:53:29.801Z,1.13
2023-04-13T22:55:57.387Z,1.05
2023-04-13T22:58:24.819Z,1.10
2023-04-13T23:00:52.414Z,1.20
2023-04-13T23:03:20.265Z,1.00
2023-04-13T23:05:47.883Z,0.90
2023-04-13T23:08:15.290Z,1.17
2023-04-13T23:10:42.793Z,1.42
2023-04-13T23:13:10.199Z,1.15
2023-04-13T23:15:38.280Z,0.98
2023-04-13T23:18:06.080Z,0.70
2023-04-13T23:20:33.656Z,0.93
2023-04-13T23:23:01.532Z,1.20
2023-04-13T23:25:29.100Z,1.13
2023-04-13T23:27:56.629Z,1.15
2023-04-13T23:30:24.060Z,1.20
2023-04-13T23:32:51.704Z,1.10
2023-04-13T23:35:19.291Z,1.00
2023-04-13T23:37:46.906Z,0.98
2023-04-13T23:40:14.478Z,1.10
2023-04-13T23:42:42.129Z,1.05
2023-04-13T23:45:09.864Z,1.30
2023-04-13T23:47:38.210Z,1.10
2023-04-13T23:50:06.418Z,1.17
2023-04-13T23:52:34.381Z,1.13
2023-04-13T23:55:01.939Z,1.50
2023-04-13T23:57:36.583Z,1.00
